Time;durP1;ratioP1;P1;durP2;ratioP2;P2;SDS_P1;SDS_P2;PMS_P1;PMS_P2;Temp;Humidity;BMP_temperature;BMP_pressure;BME280_temperature;BME280_humidity;BME280_pressure;Samples;Min_cycle;Max_cycle;Signal;HPM_P1;HPM_P2
2023/04/03 00:01:23;;;;;;;2.03;1.50;;;6.00;99.90;;;;;;5018404;28;20390;-67
2023/04/03 00:03:48;;;;;;;4.00;1.57;;;6.00;99.90;;;;;;5035966;28;20064;-68
2023/04/03 00:06:14;;;;;;;4.13;1.47;;;6.00;99.90;;;;;;5036161;28;20256;-67
2023/04/03 00:08:40;;;;;;;2.22;1.60;;;5.90;99.90;;;;;;5035977;28;20024;-67
2023/04/03 00:11:06;;;;;;;5.22;1.20;;;5.90;99.90;;;;;;5035707;28;20029;-67
2023/04/03 00:13:33;;;;;;;2.33;1.33;;;5.90;99.90;;;;;;5019446;28;20141;-66
2023/04/03 00:15:59;;;;;;;2.30;1.30;;;6.00;99.90;;;;;;5019150;28;20029;-66
2023/04/03 00:18:25;;;;;;;3.63;1.55;;;5.90;99.90;;;;;;5036399;28;20048;-67
2023/04/03 00:20:50;;;;;;;3.70;1.60;;;5.90;99.90;;;;;;5035711;28;20029;-67
2023/04/03 00:23:16;;;;;;;2.25;1.30;;;6.00;99.90;;;;;;5036128;28;20100;-67
2023/04/03 00:25:42;;;;;;;2.87;1.37;;;6.00;99.90;;;;;;5036611;28;20080;-68
2023/04/03 00:28:09;;;;;;;2.88;1.65;;;6.00;99.90;;;;;;5019213;28;20614;-67
2023/04/03 00:30:35;;;;;;;6.03;1.63;;;6.00;99.90;;;;;;5035992;28;20078;-67
2023/04/03 00:33:00;;;;;;;3.20;1.43;;;6.00;99.90;;;;;;5038794;28;20037;-66
2023/04/03 00:35:27;;;;;;;1.85;1.15;;;6.10;99.90;;;;;;5035999;28;20029;-68
2023/04/03 00:37:54;;;;;;;2.13;1.30;;;6.20;99.90;;;;;;5018177;28;20033;-67
2023/04/03 00:40:21;;;;;;;2.65;1.30;;;6.20;99.90;;;;;;5035057;28;20049;-67
2023/04/03 00:42:48;;;;;;;2.47;1.40;;;6.30;99.90;;;;;;5017629;28;20026;-68
2023/04/03 00:45:47;;;;;;;3.30;1.30;;;6.20;99.90;;;;;;5035927;28;20029;-67
2023/04/03 00:48:18;;;;;;;2.47;1.20;;;6.20;99.90;;;;;;4974806;28;20037;-67
2023/04/03 00:50:45;;;;;;;2.85;1.08;;;6.10;99.90;;;;;;4974622;28;20045;-68
2023/04/03 00:53:21;;;;;;;5.78;1.35;;;6.20;99.90;;;;;;4974727;28;20042;-67
2023/04/03 00:55:48;;;;;;;1.92;1.23;;;6.10;99.90;;;;;;4974151;28;20054;-68
2023/04/03 00:58:15;;;;;;;4.22;1.50;;;6.00;99.90;;;;;;4974530;28;20121;-68
2023/04/03 01:00:45;;;;;;;2.22;1.33;;;5.90;99.90;;;;;;4974015;28;20031;-67
2023/04/03 01:03:11;;;;;;;2.88;1.10;;;6.00;99.90;;;;;;4974307;28;20150;-68
2023/04/03 01:05:37;;;;;;;1.23;1.07;;;6.00;99.90;;;;;;4973996;28;20110;-68
2023/04/03 01:08:04;;;;;;;1.53;1.20;;;6.00;99.90;;;;;;4974280;28;20069;-68
2023/04/03 01:10:30;;;;;;;2.60;1.23;;;5.90;99.90;;;;;;4974513;28;20262;-68
2023/04/03 01:12:55;;;;;;;3.67;1.57;;;5.90;99.90;;;;;;4975440;28;20042;-67
2023/04/03 01:15:26;;;;;;;2.75;1.20;;;5.90;99.90;;;;;;4973972;28;20314;-67
2023/04/03 01:17:57;;;;;;;1.45;1.05;;;5.90;99.90;;;;;;4974226;28;20488;-67
2023/04/03 01:20:31;;;;;;;3.10;1.60;;;5.90;99.90;;;;;;4974262;28;20121;-67
2023/04/03 01:23:09;;;;;;;2.20;1.20;;;6.00;99.90;;;;;;4983490;28;20045;-67
2023/04/03 01:25:38;;;;;;;5.15;1.42;;;6.00;99.90;;;;;;5046917;28;20382;-67
2023/04/03 01:28:05;;;;;;;1.67;1.10;;;5.90;99.90;;;;;;5054352;28;20493;-67
2023/04/03 01:30:34;;;;;;;2.22;1.13;;;5.90;99.90;;;;;;5054600;28;20111;-67
2023/04/03 01:32:59;;;;;;;2.50;1.10;;;5.90;99.90;;;;;;5054400;28;20025;-67
2023/04/03 01:35:25;;;;;;;3.97;1.37;;;5.90;99.90;;;;;;5054384;28;20075;-66
2023/04/03 01:37:50;;;;;;;4.10;1.57;;;5.80;99.90;;;;;;5036501;28;20025;-66
2023/04/03 01:40:16;;;;;;;3.60;1.37;;;5.80;99.90;;;;;;5054025;28;20493;-67
2023/04/03 01:42:42;;;;;;;3.30;1.20;;;5.90;99.90;;;;;;5053987;28;20033;-67
2023/04/03 01:45:08;;;;;;;2.27;1.20;;;5.90;99.90;;;;;;5054805;28;20366;-67
2023/04/03 01:47:33;;;;;;;4.93;1.48;;;5.90;99.90;;;;;;5054088;28;20024;-67
2023/04/03 01:49:59;;;;;;;4.57;1.50;;;5.90;99.90;;;;;;5053952;28;20028;-67
2023/04/03 01:52:24;;;;;;;5.07;1.30;;;5.80;99.90;;;;;;5054160;28;20020;-67
2023/04/03 01:54:50;;;;;;;2.93;1.40;;;5.80;99.90;;;;;;5054128;28;20096;-67
2023/04/03 01:57:16;;;;;;;3.23;1.43;;;5.70;99.90;;;;;;5053868;28;20474;-67
2023/04/03 01:59:42;;;;;;;3.83;1.30;;;5.60;99.90;;;;;;5054193;28;20021;-67
2023/04/03 02:02:07;;;;;;;3.63;1.67;;;5.50;99.90;;;;;;5053721;28;20051;-68
2023/04/03 02:04:33;;;;;;;2.90;1.57;;;5.40;99.90;;;;;;5053601;28;20035;-67
2023/04/03 02:06:58;;;;;;;2.23;1.30;;;5.50;99.90;;;;;;5053642;28;20028;-67
2023/04/03 02:09:24;;;;;;;3.63;1.40;;;5.40;99.90;;;;;;5053582;28;20021;-67
2023/04/03 02:11:50;;;;;;;3.60;1.50;;;5.30;99.90;;;;;;5053195;28;20263;-67
2023/04/03 02:14:15;;;;;;;2.80;1.40;;;5.30;99.90;;;;;;5054132;28;20099;-68
2023/04/03 02:16:41;;;;;;;3.90;1.60;;;5.30;99.90;;;;;;5053716;28;20037;-67
2023/04/03 02:19:06;;;;;;;4.20;1.27;;;5.20;99.90;;;;;;5035500;28;20059;-67
2023/04/03 02:21:32;;;;;;;3.47;1.50;;;5.30;99.90;;;;;;5053463;28;20025;-67
2023/04/03 02:23:58;;;;;;;2.78;1.50;;;5.30;99.90;;;;;;5053750;28;20024;-67
2023/04/03 02:26:23;;;;;;;3.80;1.43;;;5.20;99.90;;;;;;5035774;28;20017;-67
2023/04/03 02:28:49;;;;;;;2.50;1.23;;;5.20;99.90;;;;;;5053844;28;20021;-67
2023/04/03 02:31:15;;;;;;;2.63;1.47;;;5.10;99.90;;;;;;5054107;28;20025;-67
2023/04/03 02:33:40;;;;;;;2.67;1.60;;;5.10;99.90;;;;;;5053792;28;20024;-67
2023/04/03 02:36:07;;;;;;;2.00;1.30;;;5.00;99.90;;;;;;5050388;28;20072;-67
2023/04/03 02:38:33;;;;;;;;;;;5.00;99.90;;;;;;5016481;28;20026;-67
2023/04/03 02:41:03;;;;;;;2.85;1.63;;;5.00;99.90;;;;;;5032929;28;19951;-67
2023/04/03 02:43:29;;;;;;;2.80;1.50;;;4.90;99.90;;;;;;5033675;28;20411;-67
2023/04/03 02:45:55;;;;;;;3.23;1.47;;;4.80;99.90;;;;;;5033510;28;20097;-67
2023/04/03 02:48:20;;;;;;;3.03;1.63;;;4.70;99.90;;;;;;5033271;28;20021;-67
2023/04/03 02:50:46;;;;;;;2.47;1.50;;;4.70;99.90;;;;;;5033232;28;20117;-67
2023/04/03 02:53:11;;;;;;;3.50;1.60;;;4.70;99.90;;;;;;5033623;28;20029;-67
2023/04/03 02:55:37;;;;;;;5.23;1.40;;;4.70;99.90;;;;;;5036673;28;20029;-67
2023/04/03 02:58:03;;;;;;;3.63;1.77;;;4.60;99.90;;;;;;5037221;28;20071;-67
2023/04/03 03:00:29;;;;;;;3.25;1.33;;;4.60;99.90;;;;;;5019371;28;20497;-67
2023/04/03 03:02:55;;;;;;;2.20;1.58;;;4.50;99.90;;;;;;5037083;28;20478;-67
2023/04/03 03:05:20;;;;;;;7.43;1.77;;;4.50;99.90;;;;;;5037324;28;20033;-67
2023/04/03 03:07:46;;;;;;;4.20;1.63;;;4.50;99.90;;;;;;5054259;28;20079;-67
2023/04/03 03:10:11;;;;;;;5.83;1.70;;;4.50;99.90;;;;;;5039508;28;20020;-67
2023/04/03 03:12:37;;;;;;;5.73;1.53;;;4.50;99.90;;;;;;5056508;28;20110;-67
2023/04/03 03:15:03;;;;;;;5.57;2.03;;;4.50;99.90;;;;;;5057278;28;20028;-66
2023/04/03 03:17:28;;;;;;;3.10;1.65;;;4.50;99.90;;;;;;5056509;28;20489;-67
2023/04/03 03:19:54;;;;;;;4.13;1.47;;;4.50;99.90;;;;;;5056537;28;20051;-67
2023/04/03 03:22:19;;;;;;;4.03;1.50;;;4.50;99.90;;;;;;5038590;28;20025;-68
2023/04/03 03:24:45;;;;;;;2.65;1.50;;;4.50;99.90;;;;;;5057162;28;20418;-67
2023/04/03 03:27:12;;;;;;;3.07;1.70;;;4.40;99.90;;;;;;5056294;28;20021;-66
2023/04/03 03:29:37;;;;;;;3.95;1.52;;;4.40;99.90;;;;;;5056406;28;20070;-66
2023/04/03 03:32:03;;;;;;;2.87;1.80;;;4.40;99.90;;;;;;5056342;28;20037;-66
2023/04/03 03:34:29;;;;;;;2.53;1.40;;;4.40;99.90;;;;;;5056403;28;20020;-67
2023/04/03 03:36:55;;;;;;;3.00;1.40;;;4.30;99.90;;;;;;5046803;28;20271;-66
2023/04/03 03:39:20;;;;;;;6.93;1.83;;;4.30;99.90;;;;;;5036440;28;20033;-66
2023/04/03 03:41:47;;;;;;;2.47;1.77;;;4.30;99.90;;;;;;5036075;28;20164;-68
2023/04/03 03:44:12;;;;;;;2.92;1.52;;;4.30;99.90;;;;;;5036845;28;20272;-66
2023/04/03 03:46:38;;;;;;;3.53;1.77;;;4.30;99.90;;;;;;5036335;28;20030;-67
2023/04/03 03:49:03;;;;;;;2.43;1.63;;;4.30;99.90;;;;;;5024007;28;20021;-67
2023/04/03 03:51:29;;;;;;;4.33;1.63;;;4.30;99.90;;;;;;5038186;28;20032;-67
2023/04/03 03:53:55;;;;;;;4.40;1.63;;;4.30;99.90;;;;;;5056025;28;20025;-66
2023/04/03 03:56:20;;;;;;;3.47;1.63;;;4.30;99.90;;;;;;5056062;28;20096;-67
2023/04/03 03:58:46;;;;;;;3.60;1.67;;;4.30;99.90;;;;;;5056199;28;20079;-67
2023/04/03 04:01:11;;;;;;;5.60;1.83;;;4.30;99.90;;;;;;5055827;28;20024;-66
2023/04/03 04:03:37;;;;;;;1.93;1.60;;;4.30;99.90;;;;;;5056039;28;20382;-66
2023/04/03 04:06:03;;;;;;;3.93;1.67;;;4.30;99.90;;;;;;5055656;28;20045;-67
2023/04/03 04:08:28;;;;;;;3.10;1.50;;;4.30;99.90;;;;;;5055642;28;20057;-66
2023/04/03 04:10:54;;;;;;;4.10;1.60;;;4.20;99.90;;;;;;5055440;28;20381;-66
2023/04/03 04:13:20;;;;;;;3.53;1.60;;;4.20;99.90;;;;;;5056035;28;20025;-66
2023/04/03 04:15:46;;;;;;;5.32;1.83;;;4.20;99.90;;;;;;5054718;28;20020;-67
2023/04/03 04:18:11;;;;;;;4.83;1.80;;;4.20;99.90;;;;;;5056105;28;20490;-67
2023/04/03 04:20:37;;;;;;;3.93;1.67;;;4.30;99.90;;;;;;5055755;28;20032;-67
2023/04/03 04:23:02;;;;;;;3.73;1.60;;;4.30;99.90;;;;;;5055936;28;20033;-67
2023/04/03 04:25:28;;;;;;;3.53;1.50;;;4.40;99.90;;;;;;5061585;28;20028;-67
2023/04/03 04:27:53;;;;;;;3.27;1.70;;;4.40;99.90;;;;;;5058322;28;20099;-66
2023/04/03 04:30:19;;;;;;;3.10;1.40;;;4.40;99.90;;;;;;5055379;28;20033;-67
2023/04/03 04:32:45;;;;;;;4.57;1.90;;;4.40;99.90;;;;;;5055265;28;20021;-66
2023/04/03 04:35:11;;;;;;;3.40;1.83;;;4.40;99.90;;;;;;5055543;28;20528;-66
2023/04/03 04:37:37;;;;;;;2.20;1.67;;;4.40;99.90;;;;;;5055236;28;20108;-66
2023/04/03 04:40:02;;;;;;;3.23;2.03;;;4.40;99.90;;;;;;5037476;28;20102;-67
2023/04/03 04:42:28;;;;;;;4.38;2.35;;;4.50;99.90;;;;;;5037099;28;20420;-67
2023/04/03 04:44:54;;;;;;;8.90;5.70;;;4.50;99.90;;;;;;5044112;28;20430;-67
2023/04/03 04:47:20;;;;;;;3.22;1.90;;;4.60;99.90;;;;;;5017297;28;20112;-67
2023/04/03 04:49:47;;;;;;;4.28;1.73;;;4.50;99.90;;;;;;5035282;28;20049;-68
2023/04/03 04:52:12;;;;;;;2.70;1.70;;;4.60;99.90;;;;;;5035198;28;20028;-68
2023/04/03 04:54:38;;;;;;;3.87;1.57;;;4.60;99.90;;;;;;5035259;28;20065;-68
2023/04/03 04:57:04;;;;;;;4.93;1.60;;;4.60;99.90;;;;;;5035899;28;20478;-68
2023/04/03 04:59:30;;;;;;;2.42;1.67;;;4.60;99.90;;;;;;5035609;28;20021;-67
2023/04/03 05:01:55;;;;;;;2.90;1.60;;;4.50;99.90;;;;;;5035873;28;20089;-67
2023/04/03 05:04:21;;;;;;;4.50;1.93;;;4.40;99.90;;;;;;5019197;28;20025;-67
2023/04/03 05:06:46;;;;;;;5.30;1.50;;;4.40;99.90;;;;;;5019399;28;20034;-67
2023/04/03 05:09:12;;;;;;;4.67;1.70;;;4.40;99.90;;;;;;5039783;28;20426;-68
2023/04/03 05:11:38;;;;;;;2.80;1.67;;;4.40;99.90;;;;;;5043535;28;20079;-68
2023/04/03 05:14:06;;;;;;;2.43;1.47;;;4.30;99.90;;;;;;5042938;28;20124;-68
2023/04/03 05:16:32;;;;;;;2.88;1.60;;;4.30;99.90;;;;;;5033164;28;20280;-68
2023/04/03 05:18:57;;;;;;;2.55;1.55;;;4.30;99.90;;;;;;5054613;28;20063;-67
2023/04/03 05:21:25;;;;;;;3.03;1.93;;;4.10;99.90;;;;;;5036858;28;20131;-68
2023/04/03 05:23:51;;;;;;;3.25;1.60;;;4.00;99.90;;;;;;5054873;28;20021;-68
2023/04/03 05:26:17;;;;;;;3.87;1.77;;;4.00;99.90;;;;;;5054408;28;20487;-68
2023/04/03 05:28:43;;;;;;;4.60;1.90;;;4.00;99.90;;;;;;5035939;28;20264;-68
2023/04/03 05:31:08;;;;;;;7.45;3.83;;;4.00;99.90;;;;;;5035924;28;20082;-68
2023/04/03 05:33:34;;;;;;;3.27;1.67;;;4.00;99.90;;;;;;5054098;28;20474;-67
2023/04/03 05:36:03;;;;;;;6.23;1.90;;;4.00;99.90;;;;;;5053945;28;20060;-68
2023/04/03 05:38:29;;;;;;;3.58;2.25;;;3.80;99.90;;;;;;5035809;28;20334;-67
2023/04/03 05:40:55;;;;;;;2.67;1.60;;;3.80;99.90;;;;;;5053858;28;20028;-67
2023/04/03 05:43:20;;;;;;;2.80;1.73;;;3.90;99.90;;;;;;5053902;28;20428;-67
2023/04/03 05:45:47;;;;;;;3.57;1.50;;;3.90;99.90;;;;;;5035841;28;20505;-68
2023/04/03 05:48:13;;;;;;;2.85;1.77;;;3.90;99.90;;;;;;5034209;28;20026;-67
2023/04/03 05:50:41;;;;;;;3.90;1.80;;;4.00;99.90;;;;;;5015982;28;20037;-67
2023/04/03 05:53:14;;;;;;;2.58;1.55;;;4.00;99.90;;;;;;5040561;28;20099;-68
2023/04/03 05:55:39;;;;;;;2.92;1.75;;;4.00;99.90;;;;;;5053632;28;20494;-67
2023/04/03 05:58:05;;;;;;;3.80;1.57;;;3.90;99.90;;;;;;5030780;28;20044;-68
2023/04/03 06:00:30;;;;;;;3.73;2.10;;;4.00;99.90;;;;;;5032808;28;20364;-67
2023/04/03 06:02:56;;;;;;;3.67;1.67;;;4.00;99.90;;;;;;5033646;28;20029;-67
2023/04/03 06:05:22;;;;;;;4.33;1.77;;;4.10;99.90;;;;;;5033664;28;20021;-67
2023/04/03 06:07:49;;;;;;;4.43;1.98;;;4.00;99.90;;;;;;5033596;28;20488;-68
2023/04/03 06:10:14;;;;;;;4.28;1.80;;;4.20;99.90;;;;;;5032312;28;20026;-68
2023/04/03 06:12:40;;;;;;;4.53;2.20;;;4.30;99.90;;;;;;5030436;28;20029;-68
2023/04/03 06:15:07;;;;;;;3.17;1.50;;;4.20;99.90;;;;;;5035539;28;20025;-67
2023/04/03 06:17:33;;;;;;;3.25;1.70;;;4.20;99.90;;;;;;5035582;28;20078;-68
2023/04/03 06:19:59;;;;;;;2.93;1.63;;;4.20;99.90;;;;;;5053184;28;20025;-67
2023/04/03 06:22:25;;;;;;;3.37;1.77;;;4.20;99.90;;;;;;5053261;28;20021;-67
2023/04/03 06:24:51;;;;;;;3.63;1.88;;;4.20;99.90;;;;;;5053187;28;20267;-68
2023/04/03 06:27:16;;;;;;;2.23;1.73;;;4.30;99.90;;;;;;5054022;28;20358;-68
2023/04/03 06:29:43;;;;;;;5.37;1.83;;;4.30;99.90;;;;;;5053558;28;20122;-67
2023/04/03 06:32:08;;;;;;;2.20;1.45;;;4.30;99.90;;;;;;5054591;28;20028;-67
2023/04/03 06:34:34;;;;;;;2.87;1.63;;;4.30;99.90;;;;;;5034681;28;20504;-68
2023/04/03 06:36:59;;;;;;;3.33;2.10;;;4.30;99.90;;;;;;5054350;28;20489;-68
2023/04/03 06:39:25;;;;;;;5.33;2.00;;;4.30;99.90;;;;;;5073848;28;20403;-71
2023/04/03 06:41:51;;;;;;;3.47;1.90;;;4.20;99.90;;;;;;5043709;28;20032;-70
2023/04/03 06:44:17;;;;;;;6.67;2.03;;;4.30;99.90;;;;;;5033525;28;20159;-70
2023/04/03 06:46:43;;;;;;;3.17;1.83;;;4.40;99.90;;;;;;5032745;28;20753;-70
2023/04/03 06:49:09;;;;;;;;;;;4.50;99.90;;;;;;5033744;28;20033;-71
2023/04/03 06:51:36;;;;;;;4.70;1.90;;;4.70;99.90;;;;;;5033257;28;19905;-70
2023/04/03 06:54:02;;;;;;;;;;;4.90;99.90;;;;;;5016690;28;20025;-70
2023/04/03 06:56:28;;;;;;;6.88;2.08;;;5.00;99.90;;;;;;5016592;28;19920;-69
2023/04/03 06:58:57;;;;;;;2.97;1.83;;;5.00;99.90;;;;;;5022076;28;20516;-70
2023/04/03 07:01:23;;;;;;;2.78;1.80;;;5.00;99.90;;;;;;5047270;28;20021;-70
2023/04/03 07:03:49;;;;;;;6.35;2.22;;;4.90;99.90;;;;;;5058064;28;20029;-70
2023/04/03 07:06:16;;;;;;;3.87;1.90;;;4.90;99.90;;;;;;5054961;28;20054;-70
2023/04/03 07:08:43;;;;;;;2.63;1.80;;;4.80;99.90;;;;;;5052625;28;20032;-69
2023/04/03 07:11:09;;;;;;;5.32;1.88;;;4.80;99.90;;;;;;5052834;28;20499;-70
2023/04/03 07:13:36;;;;;;;;;;;4.70;99.90;;;;;;5053267;28;20025;-68
2023/04/03 07:16:03;;;;;;;5.47;2.45;;;4.70;99.90;;;;;;5034776;28;19912;-70
2023/04/03 07:18:29;;;;;;;3.63;2.10;;;4.80;99.90;;;;;;5035188;28;20025;-71
2023/04/03 07:20:55;;;;;;;3.72;2.15;;;5.00;99.90;;;;;;5053260;28;20021;-73
2023/04/03 07:23:21;;;;;;;5.40;1.98;;;5.10;99.90;;;;;;5053362;28;20079;-70
2023/04/03 07:25:48;;;;;;;;;;;5.30;99.90;;;;;;5053452;28;20025;-72
2023/04/03 07:28:14;;;;;;;5.50;2.13;;;5.40;99.90;;;;;;5034884;28;19906;-69
2023/04/03 07:30:47;;;;;;;7.50;1.90;;;5.50;99.90;;;;;;5052168;28;20035;-72
2023/04/03 07:33:15;;;;;;;4.35;2.05;;;5.60;99.90;;;;;;5052760;28;20549;-72
2023/04/03 07:35:42;;;;;;;7.53;2.63;;;5.70;99.90;;;;;;5052726;28;20372;-70
2023/04/03 07:38:08;;;;;;;;;;;5.70;99.90;;;;;;5053285;28;20053;-71
2023/04/03 07:40:34;;;;;;;4.22;2.55;;;5.60;99.90;;;;;;5036738;28;19912;-68
2023/04/03 07:43:00;;;;;;;5.45;2.15;;;5.70;99.90;;;;;;5056427;28;20021;-67
2023/04/03 07:45:26;;;;;;;3.97;2.00;;;5.70;99.90;;;;;;5056025;28;20375;-67
2023/04/03 07:47:52;;;;;;;4.18;2.10;;;5.80;99.90;;;;;;5038346;28;20478;-69
2023/04/03 07:50:18;;;;;;;5.93;2.20;;;5.80;99.90;;;;;;5039194;28;20036;-71
2023/04/03 07:52:44;;;;;;;5.63;2.20;;;5.70;99.90;;;;;;5038487;28;20033;-72
2023/04/03 07:55:10;;;;;;;4.80;2.03;;;5.80;99.90;;;;;;5038294;28;20029;-71
2023/04/03 07:57:36;;;;;;;4.80;2.50;;;6.00;99.90;;;;;;5037906;28;20394;-68
2023/04/03 08:00:02;;;;;;;4.15;2.30;;;6.00;99.90;;;;;;5037873;28;20039;-69
2023/04/03 08:02:28;;;;;;;5.10;1.95;;;6.20;99.90;;;;;;5055831;28;20069;-70
2023/04/03 08:04:53;;;;;;;5.57;2.20;;;6.40;99.90;;;;;;5057113;28;20032;-70
2023/04/03 08:07:19;;;;;;;5.10;1.93;;;6.50;99.90;;;;;;5056501;28;20082;-70
2023/04/03 08:09:45;;;;;;;4.97;2.30;;;6.70;99.90;;;;;;5056425;28;20429;-71
2023/04/03 08:12:11;;;;;;;3.67;1.80;;;6.70;99.90;;;;;;5056163;28;20029;-70
2023/04/03 08:14:37;;;;;;;4.93;2.15;;;6.80;99.90;;;;;;5055938;28;20393;-68
2023/04/03 08:17:04;;;;;;;4.07;2.10;;;7.10;99.90;;;;;;5055530;28;20032;-73
2023/04/03 08:19:30;;;;;;;4.82;2.30;;;7.40;99.90;;;;;;5056271;28;20113;-70
2023/04/03 08:21:58;;;;;;;6.85;2.25;;;7.60;99.90;;;;;;5055928;28;20053;-70
2023/04/03 08:24:24;;;;;;;4.65;1.80;;;7.50;99.90;;;;;;5056368;28;20025;-68
2023/04/03 08:26:50;;;;;;;5.07;1.90;;;7.50;99.90;;;;;;5055525;28;20100;-68
2023/04/03 08:29:16;;;;;;;3.77;1.93;;;7.60;99.90;;;;;;5055863;28;20064;-67
2023/04/03 08:31:41;;;;;;;5.23;1.97;;;7.80;99.90;;;;;;5037634;28;20029;-67
2023/04/03 08:34:07;;;;;;;5.37;1.97;;;7.80;99.90;;;;;;5037210;28;20271;-69
2023/04/03 08:36:32;;;;;;;6.47;2.20;;;7.90;99.90;;;;;;5055159;28;20025;-69
2023/04/03 08:38:58;;;;;;;6.33;1.97;;;7.70;99.90;;;;;;5055260;28;20393;-73
2023/04/03 08:41:34;;;;;;;5.83;2.13;;;7.60;99.90;;;;;;5037391;28;20477;-72
2023/04/03 08:44:28;;;;;;;3.38;1.80;;;7.50;99.90;;;;;;5053279;28;20092;-71
2023/04/03 08:47:11;;;;;;;7.00;2.08;;;7.70;99.90;;;;;;5034946;28;20028;-73
2023/04/03 08:49:59;;;;;;;6.93;2.15;;;8.00;99.90;;;;;;5017335;28;20119;-71
2023/04/03 08:52:38;;;;;;;4.22;2.22;;;8.40;99.90;;;;;;5034310;28;20021;-72
2023/04/03 08:55:26;;;;;;;5.65;1.88;;;10.90;98.00;;;;;;5035421;28;20026;-72
2023/04/03 08:58:03;;;;;;;2.63;1.65;;;13.20;92.60;;;;;;5017063;28;20083;-68
2023/04/03 09:00:50;;;;;;;3.88;1.77;;;14.80;87.70;;;;;;5016735;28;20025;-68
2023/04/03 09:03:19;;;;;;;3.45;1.25;;;15.20;82.20;;;;;;5034603;28;20033;-69
2023/04/03 09:05:48;;;;;;;3.20;1.42;;;16.00;78.70;;;;;;5034889;28;20104;-69
2023/04/03 09:08:30;;;;;;;5.22;1.40;;;15.40;76.70;;;;;;5034895;28;20017;-69
2023/04/03 09:11:07;;;;;;;5.82;1.45;;;15.80;76.30;;;;;;5034696;28;20021;-70
2023/04/03 09:13:57;;;;;;;3.28;1.55;;;16.90;72.30;;;;;;5034842;28;20025;-69
2023/04/03 09:16:31;;;;;;;2.85;1.17;;;17.30;70.10;;;;;;5034442;28;20022;-68
2023/04/03 09:19:32;;;;;;;4.20;1.58;;;17.10;68.20;;;;;;5034505;28;20116;-68
2023/04/03 09:22:25;;;;;;;4.85;1.30;;;15.10;69.90;;;;;;5034547;28;20025;-68
2023/04/03 09:25:15;;;;;;;4.63;1.60;;;15.80;71.30;;;;;;5054476;28;20039;-72
2023/04/03 09:27:41;;;;;;;4.53;1.40;;;17.30;68.70;;;;;;5036352;28;20029;-69
2023/04/03 09:30:16;;;;;;;4.38;1.50;;;17.50;64.90;;;;;;5053829;28;20025;-69
2023/04/03 09:32:46;;;;;;;2.85;1.30;;;15.80;67.50;;;;;;5054292;28;20044;-68
2023/04/03 09:35:33;;;;;;;4.00;1.30;;;16.20;67.90;;;;;;5054834;28;20036;-70
2023/04/03 09:38:09;;;;;;;2.83;1.10;;;16.10;68.20;;;;;;5054405;28;20036;-71
2023/04/03 09:40:41;;;;;;;4.00;1.33;;;15.70;68.30;;;;;;5060808;28;20478;-68
2023/04/03 09:43:24;;;;;;;3.53;1.42;;;17.20;65.80;;;;;;5057444;28;20024;-70
2023/04/03 09:45:51;;;;;;;3.90;1.40;;;16.50;64.90;;;;;;5041186;28;20025;-70
2023/04/03 09:48:20;;;;;;;3.55;1.33;;;17.20;66.40;;;;;;5021910;28;20075;-69
2023/04/03 09:50:58;;;;;;;3.72;1.20;;;18.60;63.20;;;;;;5021046;28;20371;-69
2023/04/03 09:53:39;;;;;;;3.65;1.17;;;17.70;61.80;;;;;;5018794;28;20048;-68
2023/04/03 09:56:26;;;;;;;2.50;1.10;;;17.80;63.40;;;;;;5017864;28;20394;-68
2023/04/03 09:59:03;;;;;;;;;;;17.70;62.50;;;;;;5034966;28;20017;-68
2023/04/03 10:01:32;;;;;;;1.27;0.83;;;17.30;61.30;;;;;;5034054;28;19920;-70
2023/04/03 10:04:17;;;;;;;3.40;1.23;;;15.80;65.40;;;;;;5034016;28;20036;-70
2023/04/03 10:06:48;;;;;;;2.15;1.05;;;16.90;63.00;;;;;;5016224;28;20493;-70
2023/04/03 10:09:24;;;;;;;2.58;0.90;;;17.40;63.00;;;;;;5033464;28;20386;-70
2023/04/03 10:12:22;;;;;;;2.65;1.15;;;16.40;62.70;;;;;;5033400;28;20025;-69
2023/04/03 10:15:00;;;;;;;6.35;1.45;;;15.90;64.10;;;;;;4980578;28;20046;-70
2023/04/03 10:17:37;;;;;;;2.10;0.80;;;16.10;63.60;;;;;;4991810;28;20045;-69
2023/04/03 10:20:18;;;;;;;1.70;0.82;;;17.00;59.90;;;;;;4975880;28;20026;-70
2023/04/03 10:23:04;;;;;;;2.65;1.20;;;15.30;60.60;;;;;;4991780;28;20081;-69
2023/04/03 10:25:37;;;;;;;3.13;1.00;;;13.70;63.70;;;;;;4976312;28;20036;-69
2023/04/03 10:28:07;;;;;;;2.88;1.20;;;12.20;66.40;;;;;;4991928;28;20026;-69
2023/04/03 10:30:45;;;;;;;3.92;1.58;;;11.50;68.90;;;;;;4991240;28;20038;-69
2023/04/03 10:33:13;;;;;;;3.00;1.10;;;12.00;68.30;;;;;;4975859;28;20026;-70
2023/04/03 10:35:53;;;;;;;3.35;1.10;;;12.20;66.10;;;;;;4991913;28;20133;-69
2023/04/03 10:38:42;;;;;;;3.60;1.27;;;11.90;64.70;;;;;;4992128;28;20048;-70
2023/04/03 10:41:20;;;;;;;3.30;1.10;;;11.00;66.20;;;;;;4991612;28;20041;-69
2023/04/03 10:44:12;;;;;;;3.80;1.17;;;11.10;67.20;;;;;;4992140;28;20113;-69
2023/04/03 10:46:54;;;;;;;1.25;0.80;;;13.10;64.20;;;;;;4991238;28;20161;-70
2023/04/03 10:49:45;;;;;;;2.83;0.90;;;13.50;61.00;;;;;;4994385;28;20022;-69
2023/04/03 10:52:20;;;;;;;2.42;1.13;;;11.70;64.10;;;;;;5014893;28;20021;-69
2023/04/03 10:55:13;;;;;;;2.42;1.20;;;10.80;65.00;;;;;;5015097;28;20029;-69
2023/04/03 10:57:40;;;;;;;3.22;1.00;;;10.40;66.90;;;;;;5032794;28;20121;-70
2023/04/03 11:00:16;;;;;;;3.75;0.90;;;10.20;66.30;;;;;;5032408;28;20021;-69
2023/04/03 11:02:55;;;;;;;1.63;0.85;;;10.50;67.50;;;;;;5015143;28;20398;-69
2023/04/03 11:05:43;;;;;;;2.05;1.30;;;10.40;67.50;;;;;;5015100;28;20026;-70
2023/04/03 11:08:42;;;;;;;3.42;1.10;;;10.20;68.90;;;;;;5032862;28;20045;-69
2023/04/03 11:11:21;;;;;;;2.83;0.93;;;11.30;68.50;;;;;;5014979;28;20033;-69
2023/04/03 11:13:57;;;;;;;3.40;0.73;;;11.30;67.70;;;;;;5032855;28;20030;-69
2023/04/03 11:16:34;;;;;;;4.05;1.20;;;10.40;68.60;;;;;;5017894;28;20036;-69
2023/04/03 11:19:05;;;;;;;;;;;10.00;69.60;;;;;;5018786;28;20116;-68
2023/04/03 11:22:08;;;;;;;3.45;1.05;;;9.80;69.30;;;;;;5035897;28;19951;-69
2023/04/03 11:24:38;;;;;;;2.53;0.90;;;9.70;69.70;;;;;;5019203;28;20049;-69
2023/04/03 11:27:05;;;;;;;2.38;1.20;;;9.70;69.40;;;;;;5036255;28;20049;-69
2023/04/03 11:29:40;;;;;;;6.13;1.10;;;9.60;69.80;;;;;;5036572;28;20032;-68
2023/04/03 11:33:06;;;;;;;2.78;1.02;;;9.70;69.70;;;;;;5019162;28;20032;-70
2023/04/03 11:35:34;;;;;;;2.80;1.20;;;9.90;68.60;;;;;;4957061;29;20031;-70
2023/04/03 11:38:05;;;;;;;5.30;1.10;;;10.00;68.90;;;;;;4956502;29;20043;-70
2023/04/03 11:40:34;;;;;;;2.60;1.00;;;10.10;69.40;;;;;;4956431;29;20098;-70
2023/04/03 11:43:00;;;;;;;5.75;1.10;;;9.90;69.70;;;;;;4966600;28;20031;-69
2023/04/03 11:45:32;;;;;;;2.67;1.00;;;9.70;71.00;;;;;;4955803;29;20441;-69
2023/04/03 11:48:04;;;;;;;2.55;1.13;;;9.80;71.30;;;;;;4956409;29;20020;-69
2023/04/03 11:50:41;;;;;;;4.75;1.20;;;9.60;71.30;;;;;;4955821;29;20027;-69
2023/04/03 11:53:07;;;;;;;2.28;1.25;;;9.50;72.40;;;;;;4955438;29;20045;-68
2023/04/03 11:55:33;;;;;;;1.67;1.30;;;9.80;72.10;;;;;;4942896;28;20117;-69
2023/04/03 11:57:59;;;;;;;4.10;1.20;;;10.00;75.10;;;;;;4975472;28;20035;-69
2023/04/03 12:00:43;;;;;;;2.60;1.30;;;10.10;71.60;;;;;;4974843;28;20514;-69
2023/04/03 12:03:27;;;;;;;3.45;1.27;;;10.20;71.30;;;;;;4953891;28;20118;-68
2023/04/03 12:05:57;;;;;;;2.42;1.33;;;9.90;72.40;;;;;;4949823;28;20023;-69
2023/04/03 12:08:26;;;;;;;1.85;0.93;;;9.40;73.20;;;;;;4958364;28;20029;-70
2023/04/03 12:11:13;;;;;;;3.50;1.25;;;9.10;72.70;;;;;;5004551;28;20068;-70
2023/04/03 12:13:59;;;;;;;2.50;1.00;;;9.00;73.80;;;;;;5055730;28;20029;-69
2023/04/03 12:16:37;;;;;;;2.72;1.10;;;9.00;73.00;;;;;;5055074;28;20095;-67
2023/04/03 12:19:06;;;;;;;1.70;1.10;;;9.10;72.30;;;;;;5029826;28;20017;-67
2023/04/03 12:21:52;;;;;;;3.58;1.10;;;9.30;72.20;;;;;;5055611;28;20386;-69
2023/04/03 12:24:20;;;;;;;2.20;1.00;;;9.60;71.70;;;;;;5055844;28;20020;-69
2023/04/03 12:27:25;;;;;;;4.10;1.50;;;9.70;72.80;;;;;;5054540;28;20470;-69
2023/04/03 12:30:03;;;;;;;3.88;1.50;;;9.40;73.90;;;;;;5047932;28;20021;-70
2023/04/03 12:32:45;;;;;;;5.57;1.52;;;9.40;74.30;;;;;;5055693;28;20048;-68
2023/04/03 12:35:31;;;;;;;3.15;1.08;;;9.30;74.90;;;;;;5037650;28;20041;-68
2023/04/03 12:38:02;;;;;;;2.47;1.27;;;9.60;74.20;;;;;;5055696;28;20025;-69
2023/04/03 12:40:42;;;;;;;8.68;1.40;;;9.50;74.20;;;;;;5038202;28;20393;-70
2023/04/03 12:43:25;;;;;;;3.53;1.10;;;9.50;74.60;;;;;;5041988;28;20036;-72
2023/04/03 12:46:11;;;;;;;2.58;1.15;;;9.70;74.30;;;;;;5054881;28;20024;-69
2023/04/03 12:48:58;;;;;;;4.30;1.42;;;9.40;75.00;;;;;;5038154;28;20027;-69
2023/04/03 12:51:40;;;;;;;4.10;1.55;;;9.20;74.80;;;;;;5038230;28;20025;-71
2023/04/03 12:54:36;;;;;;;4.15;1.52;;;9.10;74.20;;;;;;5037347;28;20112;-72
2023/04/03 12:57:24;;;;;;;4.10;1.23;;;9.10;74.10;;;;;;4977558;28;20034;-70
2023/04/03 12:59:50;;;;;;;2.40;1.23;;;9.20;74.00;;;;;;4977012;28;20019;-70
2023/04/03 13:02:23;;;;;;;2.92;1.15;;;9.10;74.40;;;;;;4993905;28;20034;-69
2023/04/03 13:04:51;;;;;;;3.88;1.63;;;9.00;74.40;;;;;;4993368;28;20038;-70
2023/04/03 13:07:43;;;;;;;2.63;1.17;;;9.20;74.20;;;;;;4977160;28;20033;-68
2023/04/03 13:10:08;;;;;;;3.90;1.60;;;9.00;74.70;;;;;;4992731;28;20040;-69
2023/04/03 13:12:35;;;;;;;3.80;1.30;;;9.10;74.50;;;;;;4992913;28;20101;-69
2023/04/03 13:15:14;;;;;;;2.92;1.30;;;9.20;74.70;;;;;;4976607;28;20049;-69